Time;durP1;ratioP1;P1;durP2;ratioP2;P2;SDS_P1;SDS_P2;PMS_P1;PMS_P2;Temp;Humidity;BMP_temperature;BMP_pressure;BME280_temperature;BME280_humidity;BME280_pressure;Samples;Min_cycle;Max_cycle;Signal;HPM_P1;HPM_P2
2022/03/24 00:01:02;;;;;;;58.42;29.27;;;;;;;6.02;78.42;103176.53;5073374;28;20048;-79
2022/03/24 00:03:33;;;;;;;56.63;27.80;;;;;;;6.00;79.01;103172.03;5078170;28;20064;-79
2022/03/24 00:06:01;;;;;;;66.97;29.60;;;;;;;5.94;78.78;103169.91;5077048;28;20075;-79
2022/03/24 00:08:29;;;;;;;66.65;29.98;;;;;;;5.92;79.05;103166.28;5071622;28;20049;-80
2022/03/24 00:11:00;;;;;;;68.60;29.85;;;;;;;5.94;79.87;103167.28;5073245;28;20104;-78
2022/03/24 00:13:30;;;;;;;60.03;28.55;;;;;;;5.92;79.25;103168.88;5072258;28;20044;-79
2022/03/24 00:16:03;;;;;;;68.68;28.90;;;;;;;5.86;78.57;103165.81;5070578;28;20101;-76
2022/03/24 00:18:32;;;;;;;61.70;28.27;;;;;;;5.80;79.04;103176.72;5074129;28;20047;-75
2022/03/24 00:21:00;;;;;;;64.85;28.20;;;;;;;5.77;79.29;103168.69;5074304;28;20043;-77
2022/03/24 00:23:28;;;;;;;60.85;28.80;;;;;;;5.76;79.98;103173.78;5081007;28;20597;-79
2022/03/24 00:25:57;;;;;;;69.10;30.70;;;;;;;5.77;79.96;103178.19;5075999;28;20048;-79
2022/03/24 00:28:27;;;;;;;62.67;28.75;;;;;;;5.75;81.11;103171.97;5078744;28;20064;-78
2022/03/24 00:30:57;;;;;;;58.10;28.23;;;;;;;5.69;79.93;103168.94;5076271;28;20111;-78
2022/03/24 00:33:25;;;;;;;61.50;27.65;;;;;;;5.62;79.56;103171.91;5078000;28;20112;-76
2022/03/24 00:35:54;;;;;;;56.13;27.88;;;;;;;5.58;80.12;103171.69;5077738;28;20151;-78
2022/03/24 00:38:26;;;;;;;63.10;30.00;;;;;;;5.56;81.14;103172.38;5075997;28;20048;-78
2022/03/24 00:40:57;;;;;;;61.08;27.88;;;;;;;5.49;79.79;103180.56;5068379;28;20058;-79
2022/03/24 00:43:25;;;;;;;64.10;28.73;;;;;;;5.44;79.69;103176.72;5074374;28;20043;-78
2022/03/24 00:45:53;;;;;;;60.92;28.35;;;;;;;5.41;79.03;103169.59;5065452;28;20055;-76
2022/03/24 00:48:23;;;;;;;55.60;27.02;;;;;;;5.40;81.38;103173.00;5069239;28;20059;-76
2022/03/24 00:50:52;;;;;;;60.38;29.25;;;;;;;5.37;81.10;103172.78;5071565;28;20048;-76
2022/03/24 00:53:20;;;;;;;58.13;28.60;;;;;;;5.36;81.75;103168.38;5072862;28;20056;-76
2022/03/24 00:55:49;;;;;;;58.90;26.92;;;;;;;5.30;80.29;103173.13;5073126;28;20044;-76
2022/03/24 00:58:18;;;;;;;64.45;29.42;;;;;;;5.30;81.85;103154.94;5074258;28;20157;-76
2022/03/24 01:00:46;;;;;;;57.13;29.83;;;;;;;5.33;82.60;103160.34;5078300;28;20151;-79
2022/03/24 01:03:15;;;;;;;59.58;27.75;;;;;;;5.33;82.16;103152.53;5065801;28;20158;-79
2022/03/24 01:06:16;;;;;;;50.97;25.35;;;;;;;5.24;80.70;103154.47;5075976;28;20088;-78
2022/03/24 01:08:45;;;;;;;58.72;27.33;;;;;;;5.21;81.30;103155.16;5074602;28;20047;-79
2022/03/24 01:11:15;;;;;;;54.80;28.10;;;;;;;5.16;81.18;103147.88;5074401;28;20048;-79
2022/03/24 01:13:44;;;;;;;60.67;28.83;;;;;;;5.19;82.76;103150.69;5077769;28;20187;-79
2022/03/24 01:16:14;;;;;;;56.75;26.10;;;;;;;5.12;81.45;103145.84;5063517;28;20047;-78
2022/03/24 01:18:42;;;;;;;58.53;26.83;;;;;;;5.06;81.41;103145.41;5076068;28;20048;-78
2022/03/24 01:21:16;;;;;;;62.00;29.25;;;;;;;5.09;82.46;103145.63;5076156;28;20055;-79
2022/03/24 01:23:45;;;;;;;58.15;27.50;;;;;;;5.10;82.16;103143.13;5074782;28;20152;-79
2022/03/24 01:26:15;;;;;;;60.88;28.45;;;;;;;5.15;82.65;103143.44;5072828;28;20056;-79
2022/03/24 01:28:43;;;;;;;59.13;28.02;;;;;;;5.19;83.49;103135.06;5078308;28;20052;-76
2022/03/24 01:31:11;;;;;;;62.33;29.73;;;;;;;5.15;83.35;103138.25;5073486;28;20111;-77
2022/03/24 01:33:40;;;;;;;63.03;28.90;;;;;;;5.13;81.78;103139.84;5073767;28;20147;-78
2022/03/24 01:36:10;;;;;;;67.63;30.05;;;;;;;5.07;83.35;103140.31;5073926;28;20060;-77
2022/03/24 01:38:39;;;;;;;68.15;29.77;;;;;;;5.02;83.60;103131.25;5071821;28;20047;-78
2022/03/24 01:41:08;;;;;;;71.10;29.63;;;;;;;4.95;83.11;103131.63;5076014;28;20056;-78
2022/03/24 01:43:42;;;;;;;65.30;28.52;;;;;;;4.92;83.22;103132.28;5074777;28;20051;-78
2022/03/24 01:46:10;;;;;;;63.65;29.40;;;;;;;4.92;83.88;103129.69;5077322;28;20056;-79
2022/03/24 01:48:38;;;;;;;70.13;28.00;;;;;;;4.85;83.20;103127.44;5080088;28;20413;-79
2022/03/24 01:51:07;;;;;;;67.47;29.92;;;;;;;4.81;83.68;103124.50;5083830;28;20094;-79
2022/03/24 01:53:35;;;;;;;65.97;30.67;;;;;;;4.81;83.95;103124.50;5080564;28;20063;-79
2022/03/24 01:56:07;;;;;;;67.13;30.10;;;;;;;4.71;82.87;103125.53;5072394;28;20059;-79
2022/03/24 01:58:38;;;;;;;65.95;28.08;;;;;;;4.65;82.62;103119.88;5076481;28;20059;-79
2022/03/24 02:01:34;;;;;;;68.35;29.77;;;;;;;4.67;83.28;103118.28;5075047;28;20052;-76
2022/03/24 02:04:05;;;;;;;60.67;26.75;;;;;;;4.61;83.58;103120.44;5076730;28;20056;-76
2022/03/24 02:06:33;;;;;;;65.80;27.95;;;;;;;4.58;83.07;103123.72;5082490;28;20052;-76
2022/03/24 02:09:02;;;;;;;58.83;27.85;;;;;;;4.56;83.26;103121.81;5077662;28;20048;-77
2022/03/24 02:11:31;;;;;;;59.90;28.92;;;;;;;4.55;82.96;103122.59;5079543;28;20579;-76
2022/03/24 02:13:59;;;;;;;63.38;28.60;;;;;;;4.56;83.92;103119.22;5076475;28;20036;-77
2022/03/24 02:16:34;;;;;;;65.35;27.08;;;;;;;4.52;84.29;103119.78;5080483;28;20450;-76
2022/03/24 02:19:13;;;;;;;65.07;28.40;;;;;;;4.47;83.32;103121.13;5057847;28;20051;-76
2022/03/24 02:21:41;;;;;;;68.50;30.95;;;;;;;4.46;83.81;103111.53;5073960;28;20485;-76
2022/03/24 02:24:14;;;;;;;65.72;29.83;;;;;;;4.42;84.00;103117.28;5077551;28;20126;-76
2022/03/24 02:26:44;;;;;;;77.00;33.15;;;;;;;4.38;83.92;103123.94;5069261;28;20097;-76
2022/03/24 02:29:13;;;;;;;65.65;29.90;;;;;;;4.33;83.65;103119.19;5080880;28;20236;-76
2022/03/24 02:31:43;;;;;;;64.25;28.42;;;;;;;4.31;83.28;103111.28;5069035;28;20564;-75
2022/03/24 02:37:02;;;;;;;69.28;30.42;;;;;;;4.35;84.97;103113.31;5067574;28;20063;-76
2022/03/24 02:39:31;;;;;;;74.38;30.10;;;;;;;4.32;84.75;103114.78;5076139;28;20119;-77
2022/03/24 02:42:00;;;;;;;68.00;31.20;;;;;;;4.26;83.61;103116.13;5076219;28;20048;-77
2022/03/24 02:44:31;;;;;;;62.22;29.77;;;;;;;4.26;84.74;103108.34;5072022;28;20669;-77
2022/03/24 02:47:00;;;;;;;72.28;29.67;;;;;;;4.25;84.45;103111.72;5077861;28;20046;-77
2022/03/24 02:49:31;;;;;;;74.72;31.85;;;;;;;4.32;86.00;103109.59;5065079;28;20033;-76
2022/03/24 02:52:01;;;;;;;81.30;34.60;;;;;;;4.28;85.08;103111.97;5069490;28;20392;-76
2022/03/24 02:54:32;;;;;;;73.30;31.30;;;;;;;4.25;85.71;103121.22;5063313;28;20056;-77
2022/03/24 02:57:02;;;;;;;72.70;31.50;;;;;;;4.21;85.50;103109.69;5073061;28;20300;-76
2022/03/24 02:59:30;;;;;;;78.82;31.98;;;;;;;4.25;86.59;103116.94;5065922;28;20044;-76
2022/03/24 03:02:04;;;;;;;70.35;31.88;;;;;;;4.22;86.06;103108.91;5074232;28;20114;-77
2022/03/24 03:04:35;;;;;;;74.28;30.98;;;;;;;4.21;85.91;103114.88;5079222;28;20045;-77
2022/03/24 03:07:06;;;;;;;86.38;35.08;;;;;;;4.21;86.47;103113.97;5080242;28;20705;-77
2022/03/24 03:09:40;;;;;;;70.80;33.70;;;;;;;4.19;86.49;103112.97;5076413;28;20156;-76
2022/03/24 03:12:11;;;;;;;85.68;33.75;;;;;;;4.21;87.45;103108.78;5074952;28;20097;-76
2022/03/24 03:14:41;;;;;;;71.07;32.45;;;;;;;4.12;86.34;103111.63;5078166;28;20080;-76
2022/03/24 03:17:15;;;;;;;81.22;36.47;;;;;;;4.10;85.88;103113.22;5076471;28;20062;-76
2022/03/24 03:19:45;;;;;;;71.97;31.27;;;;;;;4.15;86.45;103109.25;5064923;28;20056;-77
2022/03/24 03:22:14;;;;;;;92.10;36.47;;;;;;;4.17;87.19;103102.47;5076835;28;20063;-77
2022/03/24 03:24:43;;;;;;;80.28;35.67;;;;;;;4.16;86.56;103108.44;5078519;28;20558;-77
2022/03/24 03:27:12;;;;;;;84.18;34.42;;;;;;;4.16;86.73;103112.78;5076437;28;20082;-78
2022/03/24 03:29:40;;;;;;;84.75;35.22;;;;;;;4.14;87.15;103109.16;5076612;28;20051;-77
2022/03/24 03:32:10;;;;;;;79.13;32.38;;;;;;;4.06;86.27;103105.97;5076210;28;20135;-78
2022/03/24 03:34:40;;;;;;;92.82;36.17;;;;;;;4.10;87.40;103107.13;5076828;28;20048;-77
2022/03/24 03:37:08;;;;;;;85.78;34.92;;;;;;;4.04;87.10;103110.16;5070421;28;20062;-78
2022/03/24 03:39:36;;;;;;;87.47;35.70;;;;;;;4.04;87.66;103109.25;5063921;28;20051;-78
2022/03/24 03:42:08;;;;;;;82.60;34.38;;;;;;;4.01;87.64;103109.91;5075042;28;20049;-78
2022/03/24 03:44:37;;;;;;;86.35;35.58;;;;;;;3.94;87.06;103107.63;5044588;28;20164;-78
2022/03/24 03:47:06;;;;;;;79.07;33.97;;;;;;;3.91;86.78;103104.81;5069837;28;20048;-78
2022/03/24 03:49:35;;;;;;;85.22;36.30;;;;;;;3.93;87.37;103114.53;5058539;28;20055;-78
2022/03/24 03:52:22;;;;;;;88.38;34.60;;;;;;;3.92;87.71;103101.44;5070672;28;20067;-78
2022/03/24 03:54:52;;;;;;;73.85;31.73;;;;;;;3.86;87.07;103104.47;5070448;28;20043;-78
2022/03/24 03:57:23;;;;;;;82.13;33.80;;;;;;;3.83;87.00;103100.72;5076097;28;20048;-78
2022/03/24 03:59:50;;;;;;;91.03;37.35;;;;;;;3.81;87.31;103099.72;5075585;28;20064;-78
2022/03/24 04:02:18;;;;;;;96.45;39.58;;;;;;;3.83;88.54;103099.03;5072342;28;20043;-78
2022/03/24 04:04:47;;;;;;;86.72;37.70;;;;;;;3.79;88.27;103099.59;5073799;28;20071;-78
2022/03/24 04:07:15;;;;;;;88.75;34.63;;;;;;;3.78;88.57;103104.66;5075763;28;20127;-78
2022/03/24 04:09:43;;;;;;;82.78;35.75;;;;;;;3.73;87.76;103100.81;5072752;28;20083;-77
2022/03/24 04:12:13;;;;;;;80.60;34.38;;;;;;;3.70;87.49;103110.94;5076074;28;20048;-78
2022/03/24 04:14:43;;;;;;;93.45;34.28;;;;;;;3.67;87.55;103106.44;5074849;28;20661;-78
2022/03/24 04:17:11;;;;;;;98.93;38.25;;;;;;;3.65;88.17;103108.00;5076182;28;20056;-78
2022/03/24 04:19:39;;;;;;;83.13;34.08;;;;;;;3.60;87.86;103112.84;5071292;28;20109;-77
2022/03/24 04:22:07;;;;;;;87.97;32.50;;;;;;;3.60;87.39;103107.66;5068863;28;20644;-78
2022/03/24 04:24:35;;;;;;;76.70;32.70;;;;;;;3.56;87.55;103102.09;5071733;28;20250;-77
2022/03/24 04:27:05;;;;;;;79.53;33.03;;;;;;;3.55;88.26;103102.88;5074436;28;20567;-78
2022/03/24 04:29:34;;;;;;;86.85;35.67;;;;;;;3.50;88.24;103112.91;5076755;28;20197;-78
2022/03/24 04:32:05;;;;;;;93.15;34.85;;;;;;;3.46;87.89;103113.44;5073347;28;20043;-76
2022/03/24 04:34:33;;;;;;;92.07;37.95;;;;;;;3.47;88.14;103103.97;5074248;28;20052;-77
2022/03/24 04:37:02;;;;;;;91.32;35.97;;;;;;;3.55;89.51;103106.38;5073113;28;20071;-77
2022/03/24 04:39:31;;;;;;;89.80;37.33;;;;;;;3.49;88.83;103105.91;5071881;28;20110;-77
2022/03/24 04:42:00;;;;;;;93.70;36.80;;;;;;;3.46;88.41;103112.56;5075270;28;20048;-77
2022/03/24 04:44:28;;;;;;;101.47;42.03;;;;;;;3.45;88.72;103110.75;5074158;28;20640;-78
2022/03/24 04:46:57;;;;;;;96.35;37.17;;;;;;;3.44;88.63;103112.44;5072523;28;20066;-77
2022/03/24 04:49:27;;;;;;;81.05;35.10;;;;;;;3.37;88.21;103110.13;5070623;28;20041;-77
2022/03/24 04:51:57;;;;;;;104.07;38.45;;;;;;;3.36;88.85;103118.72;5072757;28;20710;-77
2022/03/24 04:54:26;;;;;;;91.45;34.25;;;;;;;3.32;88.57;103118.34;5072594;28;20059;-77
2022/03/24 04:56:57;;;;;;;94.03;37.30;;;;;;;3.32;88.27;103116.66;5070043;28;20047;-77
2022/03/24 04:59:25;;;;;;;103.38;40.30;;;;;;;3.31;89.15;103120.03;5069035;28;20040;-77
2022/03/24 05:01:55;;;;;;;94.80;37.22;;;;;;;3.29;89.04;103126.78;5073881;28;20375;-78
2022/03/24 05:04:27;;;;;;;96.35;37.70;;;;;;;3.26;89.03;103117.06;5072442;28;20209;-77
2022/03/24 05:07:00;;;;;;;81.70;36.75;;;;;;;3.23;89.01;103121.13;5072949;28;20055;-76
2022/03/24 05:09:28;;;;;;;89.85;36.00;;;;;;;3.19;88.94;103121.66;5066849;28;20047;-76
2022/03/24 05:11:58;;;;;;;94.68;37.30;;;;;;;3.17;88.68;103124.13;5069895;28;20106;-77
2022/03/24 05:14:26;;;;;;;89.32;36.65;;;;;;;3.13;88.40;103128.94;5073124;28;20072;-77
2022/03/24 05:16:54;;;;;;;87.45;35.83;;;;;;;3.11;89.16;103128.84;5073353;28;20036;-76
2022/03/24 05:19:22;;;;;;;100.55;37.97;;;;;;;3.14;89.36;103133.34;5066188;28;20058;-77
2022/03/24 05:21:53;;;;;;;99.97;39.83;;;;;;;3.17;90.07;103128.41;5077776;28;20047;-76
2022/03/24 05:24:21;;;;;;;104.82;38.97;;;;;;;3.19;90.46;103129.44;5076429;28;20066;-77
2022/03/24 05:26:49;;;;;;;103.80;38.47;;;;;;;3.21;90.17;103131.38;5074412;28;20113;-77
2022/03/24 05:29:18;;;;;;;104.22;39.22;;;;;;;3.19;90.08;103138.13;5077881;28;20531;-76
2022/03/24 05:31:46;;;;;;;92.50;36.47;;;;;;;3.21;90.47;103133.06;5075045;28;20112;-76
2022/03/24 05:34:14;;;;;;;87.85;35.72;;;;;;;3.20;89.99;103139.03;5077614;28;20054;-76
2022/03/24 05:36:42;;;;;;;90.97;36.97;;;;;;;3.21;91.10;103139.16;5076356;28;20071;-75
2022/03/24 05:39:11;;;;;;;102.70;39.05;;;;;;;3.19;90.91;103135.53;5079913;28;20169;-75
2022/03/24 05:41:39;;;;;;;101.00;36.78;;;;;;;3.19;90.62;103150.19;5074116;28;20076;-76
2022/03/24 05:44:07;;;;;;;98.43;37.72;;;;;;;3.19;90.84;103140.72;5076748;28;20088;-77
2022/03/24 05:46:47;;;;;;;89.38;34.03;;;;;;;3.18;90.69;103144.09;5073145;28;20078;-77
2022/03/24 05:49:18;;;;;;;89.10;34.72;;;;;;;3.15;90.07;103140.34;5074599;28;20083;-76
2022/03/24 05:51:47;;;;;;;105.95;39.10;;;;;;;3.20;90.91;103141.63;5072849;28;20518;-77
2022/03/24 05:54:17;;;;;;;112.35;41.45;;;;;;;3.21;91.01;103149.53;5074537;28;20051;-77
2022/03/24 05:56:46;;;;;;;99.22;34.50;;;;;;;3.19;90.73;103147.59;5074612;28;20056;-77
2022/03/24 05:59:16;;;;;;;89.32;34.72;;;;;;;3.18;90.02;103148.38;5072967;28;20280;-77
2022/03/24 06:01:45;;;;;;;107.35;38.95;;;;;;;3.19;90.88;103147.59;5074970;28;20052;-77
2022/03/24 06:04:15;;;;;;;95.72;34.72;;;;;;;3.20;90.50;103141.63;5074498;28;20044;-77
2022/03/24 06:06:45;;;;;;;95.80;36.13;;;;;;;3.23;90.23;103136.69;5078114;28;20058;-76
2022/03/24 06:09:13;;;;;;;94.78;36.08;;;;;;;3.25;89.90;103146.38;5079497;28;20213;-75
2022/03/24 06:11:42;;;;;;;109.65;40.40;;;;;;;3.28;90.28;103141.44;5073421;28;20152;-76
2022/03/24 06:14:13;;;;;;;112.88;40.80;;;;;;;3.35;90.22;103137.66;5075072;28;20131;-76
2022/03/24 06:16:43;;;;;;;93.60;36.55;;;;;;;3.39;90.36;103134.50;5074804;28;20047;-76
2022/03/24 06:19:11;;;;;;;103.68;39.58;;;;;;;3.43;89.88;103139.16;5058611;28;20044;-78
2022/03/24 06:21:39;;;;;;;101.88;36.85;;;;;;;3.49;89.83;103139.63;5080776;28;20417;-76
2022/03/24 06:24:08;;;;;;;112.32;38.60;;;;;;;3.51;89.84;103138.06;5079155;28;20076;-77
2022/03/24 06:26:37;;;;;;;105.13;35.83;;;;;;;3.59;89.83;103139.56;5060403;28;20074;-77
2022/03/24 06:29:10;;;;;;;104.05;38.72;;;;;;;3.61;89.50;103143.19;5078025;28;20080;-76
2022/03/24 06:31:39;;;;;;;101.00;37.13;;;;;;;3.68;89.72;103148.84;5069365;28;20492;-77
2022/03/24 06:34:08;;;;;;;108.82;40.00;;;;;;;3.73;89.90;103147.53;5081839;28;20040;-77
2022/03/24 06:36:37;;;;;;;121.93;43.47;;;;;;;3.78;90.04;103141.91;5076821;28;20040;-77
2022/03/24 06:39:06;;;;;;;127.18;40.78;;;;;;;3.86;89.85;103142.50;5077122;28;20056;-76
2022/03/24 06:41:34;;;;;;;114.38;40.05;;;;;;;3.89;89.36;103146.22;5072669;28;20564;-76
2022/03/24 06:44:07;;;;;;;98.18;37.00;;;;;;;3.95;89.47;103151.00;5074468;28;20044;-76
2022/03/24 06:46:38;;;;;;;98.63;38.13;;;;;;;4.01;89.76;103148.88;5072312;28;20051;-77
2022/03/24 06:49:07;;;;;;;115.72;42.22;;;;;;;4.09;89.34;103150.34;5056118;28;20157;-75
2022/03/24 06:51:36;;;;;;;118.82;40.60;;;;;;;4.19;89.91;103145.03;5073082;28;20075;-76
2022/03/24 06:54:04;;;;;;;130.95;46.13;;;;;;;4.38;91.02;103146.41;5073834;28;20048;-78
2022/03/24 06:56:33;;;;;;;113.55;41.75;;;;;;;4.44;90.43;103144.28;5070029;28;20116;-77
2022/03/24 06:59:01;;;;;;;126.78;45.20;;;;;;;4.57;90.43;103139.22;5072400;28;20321;-76
2022/03/24 07:01:29;;;;;;;117.93;42.42;;;;;;;4.68;90.04;103140.00;5078541;28;20146;-76
2022/03/24 07:03:59;;;;;;;126.38;44.97;;;;;;;4.79;90.33;103136.50;5077403;28;20536;-76
2022/03/24 07:06:28;;;;;;;127.15;44.92;;;;;;;4.91;90.41;103139.97;5077890;28;20093;-76
2022/03/24 07:08:56;;;;;;;132.93;45.30;;;;;;;4.99;90.59;103138.84;5074771;28;20055;-77
2022/03/24 07:11:23;;;;;;;150.73;48.33;;;;;;;5.12;90.45;103140.63;5076389;28;20044;-75
2022/03/24 07:13:51;;;;;;;158.52;52.80;;;;;;;5.34;90.77;103143.03;5076467;28;20044;-76
2022/03/24 07:16:19;;;;;;;151.02;49.05;;;;;;;5.53;89.81;103138.34;5068290;28;20062;-76
2022/03/24 07:18:48;;;;;;;130.68;47.05;;;;;;;5.65;89.12;103141.78;5073857;28;20047;-78
2022/03/24 07:21:19;;;;;;;156.45;48.13;;;;;;;5.83;89.24;103139.56;5068984;28;20092;-76
2022/03/24 07:23:47;;;;;;;146.15;48.92;;;;;;;6.06;89.07;103136.88;5074840;28;20683;-77
2022/03/24 07:26:16;;;;;;;149.10;49.58;;;;;;;6.42;88.10;103137.50;5067439;28;20050;-76
2022/03/24 07:28:44;;;;;;;155.57;53.42;;;;;;;6.67;87.83;103140.94;5078083;28;20079;-76
2022/03/24 07:31:16;;;;;;;167.90;55.58;;;;;;;6.95;87.47;103143.63;5078143;28;20137;-75
2022/03/24 07:33:44;;;;;;;152.38;52.85;;;;;;;7.26;87.08;103138.66;5077231;28;20050;-75
2022/03/24 07:36:12;;;;;;;173.88;56.85;;;;;;;7.60;86.25;103138.13;5077040;28;20553;-74
2022/03/24 07:38:44;;;;;;;173.30;55.95;;;;;;;7.90;84.57;103139.13;5073348;28;20135;-75
2022/03/24 07:41:12;;;;;;;187.18;56.75;;;;;;;8.23;84.14;103141.13;5079478;28;20052;-76
2022/03/24 07:43:40;;;;;;;180.00;56.88;;;;;;;8.56;83.66;103130.84;5067677;28;20143;-76
2022/03/24 07:46:08;;;;;;;163.10;56.63;;;;;;;8.90;81.91;103133.69;5075303;28;20499;-76
2022/03/24 07:48:38;;;;;;;170.35;54.40;;;;;;;9.21;80.87;103134.59;5077008;28;20063;-76
2022/03/24 07:51:08;;;;;;;158.98;53.22;;;;;;;9.54;79.94;103132.88;5077216;28;20045;-76
2022/03/24 07:53:52;;;;;;;150.52;52.17;;;;;;;9.87;79.64;103144.25;5076881;28;20044;-75
2022/03/24 07:56:22;;;;;;;176.45;59.15;;;;;;;10.09;77.54;103135.78;5075212;28;20048;-75
2022/03/24 07:58:50;;;;;;;174.73;55.03;;;;;;;10.15;74.21;103149.22;5073448;28;20105;-74
2022/03/24 08:01:26;;;;;;;159.68;54.03;;;;;;;10.43;74.25;103148.91;5070355;28;20043;-76
2022/03/24 08:03:55;;;;;;;132.93;46.03;;;;;;;10.58;72.12;103154.91;5069512;28;20170;-75
2022/03/24 08:06:23;;;;;;;127.78;45.10;;;;;;;10.77;71.72;103155.00;5071621;28;20118;-75
2022/03/24 08:08:52;;;;;;;139.18;47.92;;;;;;;10.86;70.33;103157.19;5074819;28;20064;-75
2022/03/24 08:11:22;;;;;;;126.38;44.65;;;;;;;11.09;70.41;103148.69;5061705;28;20128;-75
2022/03/24 08:13:52;;;;;;;128.68;46.22;;;;;;;11.17;68.18;103149.06;5071547;28;20128;-75
2022/03/24 08:16:20;;;;;;;123.57;46.50;;;;;;;11.42;68.07;103151.13;5074662;28;20047;-75
2022/03/24 08:18:48;;;;;;;117.65;43.85;;;;;;;11.51;65.89;103154.13;5073701;28;20040;-76
2022/03/24 08:21:16;;;;;;;106.88;43.80;;;;;;;11.78;66.35;103158.06;5070411;28;20639;-75
2022/03/24 08:23:44;;;;;;;110.88;43.88;;;;;;;11.86;64.55;103160.13;5059970;28;20189;-75
2022/03/24 08:26:13;;;;;;;107.05;40.88;;;;;;;12.18;62.88;103151.94;5064094;28;20144;-76
2022/03/24 08:28:41;;;;;;;100.28;39.03;;;;;;;12.43;61.36;103156.53;5073506;28;20043;-75
2022/03/24 08:31:09;;;;;;;82.72;35.55;;;;;;;12.49;61.07;103154.13;5074865;28;20048;-76
2022/03/24 08:33:37;;;;;;;90.45;36.35;;;;;;;12.60;57.91;103157.19;5068819;28;20097;-75
2022/03/24 08:36:07;;;;;;;90.88;35.15;;;;;;;12.76;56.98;103159.63;5075215;28;20070;-75
2022/03/24 08:38:36;;;;;;;74.55;33.53;;;;;;;12.85;54.49;103164.38;5066406;28;20138;-75
2022/03/24 08:41:04;;;;;;;73.05;31.23;;;;;;;12.88;54.62;103168.03;5073468;28;20488;-76
2022/03/24 08:43:33;;;;;;;74.78;31.17;;;;;;;13.16;53.79;103164.81;5069607;28;20040;-76
2022/03/24 08:46:08;;;;;;;73.53;33.03;;;;;;;13.31;53.04;103170.69;5075872;28;20048;-77
2022/03/24 08:48:37;;;;;;;71.40;30.08;;;;;;;13.39;51.19;103161.34;5062292;28;20049;-76
2022/03/24 08:51:06;;;;;;;73.80;30.67;;;;;;;13.41;49.45;103167.56;5070548;28;20547;-76
2022/03/24 08:53:33;;;;;;;75.55;30.48;;;;;;;13.68;48.83;103169.41;5078981;28;20086;-76
2022/03/24 08:56:01;;;;;;;67.85;30.60;;;;;;;13.71;46.58;103170.44;5071131;28;20056;-76
2022/03/24 08:58:30;;;;;;;69.70;28.90;;;;;;;14.02;47.09;103163.66;5079766;28;20036;-76
2022/03/24 09:00:59;;;;;;;61.45;27.38;;;;;;;14.23;47.33;103166.16;5069534;28;20094;-76
2022/03/24 09:03:28;;;;;;;62.25;29.30;;;;;;;14.48;45.52;103166.19;5073469;28;20119;-75
2022/03/24 09:05:56;;;;;;;64.07;29.52;;;;;;;14.53;43.26;103167.25;5076659;28;20051;-75
2022/03/24 09:08:24;;;;;;;61.55;27.90;;;;;;;14.73;44.09;103175.81;5075060;28;20046;-76
2022/03/24 09:10:52;;;;;;;65.35;26.73;;;;;;;14.68;43.58;103170.38;5068985;28;20132;-76
2022/03/24 09:13:20;;;;;;;64.47;29.35;;;;;;;15.01;45.59;103172.31;5074861;28;20106;-76
2022/03/24 09:15:48;;;;;;;62.45;27.10;;;;;;;15.21;45.14;103171.22;5077654;28;20052;-76
2022/03/24 09:18:18;;;;;;;56.72;26.08;;;;;;;15.19;41.46;103172.91;5078668;28;20714;-76
2022/03/24 09:20:45;;;;;;;48.95;22.95;;;;;;;15.46;41.25;103169.31;5070189;28;20131;-76
2022/03/24 09:23:13;;;;;;;56.20;26.05;;;;;;;15.56;40.83;103174.03;5069064;28;20135;-75
2022/03/24 09:25:41;;;;;;;56.28;23.77;;;;;;;15.67;40.85;103181.44;5075988;28;20090;-75
2022/03/24 09:28:10;;;;;;;50.92;24.08;;;;;;;15.71;40.97;103177.13;5079146;28;20476;-75
2022/03/24 09:30:40;;;;;;;57.63;25.15;;;;;;;15.91;40.40;103175.97;5082483;28;20044;-75
2022/03/24 09:33:09;;;;;;;49.38;24.02;;;;;;;15.91;38.29;103175.97;5077083;28;20043;-74
2022/03/24 09:35:38;;;;;;;47.70;23.55;;;;;;;16.06;36.60;103169.31;5075580;28;20068;-75
2022/03/24 09:38:06;;;;;;;48.33;22.98;;;;;;;16.37;38.34;103177.22;5069389;28;20084;-75
2022/03/24 09:40:34;;;;;;;46.75;22.15;;;;;;;16.42;36.71;103172.06;5075265;28;20132;-76
2022/03/24 09:43:04;;;;;;;52.15;23.02;;;;;;;16.24;35.59;103165.41;5080379;28;20040;-76
2022/03/24 09:45:32;;;;;;;47.75;22.98;;;;;;;16.47;35.62;103163.38;5079149;28;20091;-75
2022/03/24 09:48:02;;;;;;;52.08;24.15;;;;;;;16.59;37.00;103173.38;5079382;28;20067;-76
2022/03/24 09:50:34;;;;;;;53.25;23.38;;;;;;;16.86;36.12;103162.56;5072449;28;20048;-76
2022/03/24 09:53:03;;;;;;;49.35;22.98;;;;;;;16.57;34.28;103162.75;5068505;28;20494;-75
2022/03/24 09:55:32;;;;;;;42.08;20.65;;;;;;;16.75;35.41;103164.06;5067115;28;20068;-77
2022/03/24 09:58:00;;;;;;;44.25;21.65;;;;;;;17.01;33.72;103162.94;5074828;28;20118;-76
2022/03/24 10:00:43;;;;;;;44.33;21.30;;;;;;;17.12;33.99;103156.13;5076983;28;20483;-76
2022/03/24 10:03:18;;;;;;;44.75;23.15;;;;;;;17.21;33.82;103153.69;5076420;28;20047;-74
2022/03/24 10:05:58;;;;;;;42.28;20.60;;;;;;;17.44;33.74;103162.16;5075532;28;20093;-75
2022/03/24 10:08:30;;;;;;;39.92;19.17;;;;;;;17.54;32.48;103155.31;5080899;28;20463;-75
2022/03/24 10:10:59;;;;;;;43.85;20.10;;;;;;;17.52;32.53;103157.91;5079785;28;20486;-76
2022/03/24 10:13:42;;;;;;;42.88;20.88;;;;;;;17.45;33.06;103160.41;5071868;28;20040;-75
2022/03/24 10:16:11;;;;;;;;;;;;;;;17.77;33.13;103154.03;5076730;28;20621;-74
2022/03/24 10:18:56;;;;;;;38.45;18.30;;;;;;;17.96;32.28;103158.84;5075132;28;19924;-75
2022/03/24 10:21:28;;;;;;;36.70;18.33;;;;;;;18.05;31.92;103162.53;5075885;28;20163;-74
2022/03/24 10:24:00;;;;;;;39.80;19.13;;;;;;;18.28;30.97;103158.53;5078441;28;20147;-75
2022/03/24 10:26:41;;;;;;;37.92;20.83;;;;;;;18.56;32.83;103159.94;5074057;28;20040;-75
2022/03/24 10:29:09;;;;;;;35.20;20.83;;;;;;;18.35;29.87;103155.13;5076693;28;20119;-75
2022/03/24 10:31:39;;;;;;;37.75;20.05;;;;;;;18.55;31.85;103166.13;5074305;28;20055;-75
2022/03/24 10:34:08;;;;;;;35.05;18.42;;;;;;;18.91;30.25;103158.75;5075358;28;20158;-78
2022/03/24 10:36:36;;;;;;;34.65;17.25;;;;;;;18.92;30.18;103164.94;5077352;28;20060;-78
2022/03/24 10:39:07;;;;;;;36.20;18.10;;;;;;;19.16;29.38;103157.34;5076639;28;20140;-75
2022/03/24 10:41:37;;;;;;;33.42;16.52;;;;;;;18.66;28.20;103166.31;5075215;28;20062;-77
2022/03/24 10:44:07;;;;;;;35.28;18.40;;;;;;;18.56;28.50;103159.94;5076926;28;20044;-78
2022/03/24 10:46:38;;;;;;;34.78;17.83;;;;;;;18.83;28.98;103156.84;5080517;28;20040;-76
2022/03/24 10:49:18;;;;;;;34.40;18.17;;;;;;;18.86;29.88;103162.19;5074331;28;20051;-77
2022/03/24 10:51:48;;;;;;;36.20;17.98;;;;;;;19.06;29.39;103163.41;5074681;28;20472;-77
2022/03/24 10:54:27;;;;;;;37.17;18.77;;;;;;;18.98;28.92;103159.72;5078468;28;20135;-78
2022/03/24 10:57:02;;;;;;;35.03;17.00;;;;;;;19.05;29.29;103161.63;5076766;28;20091;-78
2022/03/24 10:59:34;;;;;;;37.13;19.00;;;;;;;18.91;29.47;103161.41;5067181;28;20036;-78
2022/03/24 11:02:04;;;;;;;35.78;18.60;;;;;;;18.97;29.05;103157.94;5073955;28;20163;-75
2022/03/24 11:04:33;;;;;;;36.58;18.67;;;;;;;19.14;29.34;103153.78;5073674;28;20040;-76
2022/03/24 11:07:01;;;;;;;35.92;19.02;;;;;;;19.20;28.81;103156.53;5072001;28;20047;-77
2022/03/24 11:09:31;;;;;;;36.83;20.58;;;;;;;19.14;29.42;103153.78;5071489;28;20044;-76
2022/03/24 11:12:26;;;;;;;33.60;19.60;;;;;;;19.05;29.83;103160.72;5081600;28;20063;-77
2022/03/24 11:14:57;;;;;;;34.83;18.80;;;;;;;19.13;29.75;103154.63;5076125;28;20044;-76
2022/03/24 11:17:25;;;;;;;32.03;18.77;;;;;;;19.49;29.10;103148.03;5076100;28;20121;-77
2022/03/24 11:20:06;;;;;;;36.33;18.63;;;;;;;19.57;29.00;103146.41;5072438;28;20040;-76
2022/03/24 11:22:44;;;;;;;37.22;18.80;;;;;;;19.73;30.02;103148.38;5076447;28;20056;-78
2022/03/24 11:25:14;;;;;;;35.83;19.25;;;;;;;19.38;28.71;103147.00;5070430;28;20048;-77
2022/03/24 11:27:42;;;;;;;36.78;17.33;;;;;;;19.47;29.56;103141.81;5068660;28;20129;-76